Cooperative Ambassador — WDB9871 — position and weather

sailwx.info

Track history (hours):
 
Tides and Currents Weather Stations Pressure Air Temp Water Temp Dewpoint Dewpoint Depression Visibility Wind Speed Wind Dir Waves Ship Positions

Cooperative Ambassador

Owner: American River Transportation Company, St Louis, MO. More information available from US FCC via Universal Licensing System and Coast Guard Vessel Documentation Center.

Last reported at 2017-Sep-27 09:45 UTC. Time now 2017-Dec-13 18:50 UTC.
Position N 40°53' W 091°02'.
Warning: this ship's position is months out of date.

Length 43 m.

Type: Towing. MMSI: 366984260.

Date/timePositionNaut miles runAvg speedWind from/ knotsBaromVisibWave heightAir tempDewpointWater temp
2017-Sep-27 09:45N 40°53' W 091°02'0 0.9
2017-Sep-27 09:30N 40°53' W 091°01'0 0.2
2017-Sep-27 09:00N 40°53' W 091°01'0 0.0
2017-Sep-27 08:30N 40°53' W 091°01'1 1.6
2017-Sep-27 08:00N 40°54' W 091°01'2 4.0
2017-Sep-27 07:30N 40°55' W 090°59'2 4.2
2017-Sep-27 07:00N 40°57' W 090°57'2 4.8
2017-Sep-27 06:30N 40°59' W 090°57'3 4.8
2017-Sep-27 05:58N 41°02' W 090°57'3 4.8
2017-Sep-27 05:23N 41°04' W 090°57'2 4.9
2017-Sep-27 05:00N 41°06' W 090°57'  
2017-Sep-21 00:54N 38°54' W 090°31'2 5.1
2017-Sep-21 00:30N 38°56' W 090°30'3 5.1
2017-Sep-21 00:00N 38°57' W 090°27'3 5.5
2017-Sep-20 23:30N 38°58' W 090°24'3 5.9
2017-Sep-20 23:00N 38°56' W 090°20'  
Track history (hours):
 
Tides and Currents Weather Stations Pressure Air Temp Water Temp Dewpoint Dewpoint Depression Visibility Wind Speed Wind Dir Waves Ship Positions

Cooperative Ambassador

Owner: American River Transportation Company, St Louis, MO. More information available from US FCC via Universal Licensing System and Coast Guard Vessel Documentation Center.

Last reported at 2017-Sep-27 09:45 UTC. Time now 2017-Dec-13 18:50 UTC.
Position N 40°53' W 091°02'.
Warning: this ship's position is months out of date.

Length 43 m.

Type: Towing. MMSI: 366984260.

Date/timePositionNaut miles runAvg speedWind from/ knotsBaromVisibWave heightAir tempDewpointWater temp
2017-Sep-27 09:45N 40°53' W 091°02'0 0.9
2017-Sep-27 09:30N 40°53' W 091°01'0 0.2
2017-Sep-27 09:00N 40°53' W 091°01'0 0.0
2017-Sep-27 08:30N 40°53' W 091°01'1 1.6
2017-Sep-27 08:00N 40°54' W 091°01'2 4.0
2017-Sep-27 07:30N 40°55' W 090°59'2 4.2
2017-Sep-27 07:00N 40°57' W 090°57'2 4.8
2017-Sep-27 06:30N 40°59' W 090°57'3 4.8
2017-Sep-27 05:58N 41°02' W 090°57'3 4.8
2017-Sep-27 05:23N 41°04' W 090°57'2 4.9
2017-Sep-27 05:00N 41°06' W 090°57'  
2017-Sep-21 00:54N 38°54' W 090°31'2 5.1
2017-Sep-21 00:30N 38°56' W 090°30'3 5.1
2017-Sep-21 00:00N 38°57' W 090°27'3 5.5
2017-Sep-20 23:30N 38°58' W 090°24'3 5.9
2017-Sep-20 23:00N 38°56' W 090°20'  

Dump ship's entire track history